Terminal Aerodrome Forecast
Issued by NWS

Home | Current Version | Previous Version | Graphics & Text | Print | Product List | Glossary On
Versions: 1 2 3 4 5 6 7 8 9 10 11 12 13 14 15 16 17 18 19 20
000
FTUS41 KCLE 261500 AAB
TAFFDY
TAF AMD
KFDY 261505Z 2615/2712 02014KT 1 1/2SM -SN OVC015
     FM261630 02012KT 3SM -SN OVC025
     FM261800 02010KT 6SM -SN OVC025
     FM262100 36008KT P6SM BKN035 OVC070=

USA.gov is the U.S. government's official web portal to all federal, state and local government web resources and services.